Time;durP1;ratioP1;P1;durP2;ratioP2;P2;SDS_P1;SDS_P2;PMS_P1;PMS_P2;Temp;Humidity;BMP_temperature;BMP_pressure;BME280_temperature;BME280_humidity;BME280_pressure;Samples;Min_cycle;Max_cycle;Signal;HPM_P1;HPM_P2
2022/05/04 00:01:26;;;;;;;0.50;0.50;;;;;;;;;;4973851;28;20074;-63
2022/05/04 00:03:57;;;;;;;0.50;0.40;;;;;;;;;;4973728;28;20558;-62
2022/05/04 00:06:28;;;;;;;1.95;0.40;;;;;;;;;;4973830;28;20058;-65
2022/05/04 00:08:58;;;;;;;0.40;0.40;;;;;;;;;;4973496;28;20058;-63
2022/05/04 00:11:29;;;;;;;0.40;0.40;;;;;;;;;;4973697;28;20058;-64
2022/05/04 00:13:59;;;;;;;0.50;0.50;;;;;;;;;;4941375;28;20063;-66
2022/05/04 00:16:30;;;;;;;0.57;0.57;;;;;;;;;;4973631;28;20065;-66
2022/05/04 00:19:01;;;;;;;0.47;0.40;;;;;;;;;;4985297;28;20072;-65
2022/05/04 00:21:31;;;;;;;0.43;0.10;;;;;;;;;;5032262;28;20424;-64
2022/05/04 00:24:02;;;;;;;0.40;0.40;;;;;;;;;;5032153;28;20049;-64
2022/05/04 00:26:33;;;;;;;0.75;0.70;;;;;;;;;;4936317;28;20072;-65
2022/05/04 00:29:03;;;;;;;0.25;0.15;;;;;;;;;;5052551;28;20411;-65
2022/05/04 00:31:34;;;;;;;0.35;0.25;;;;;;;;;;5071873;28;20409;-66
2022/05/04 00:34:04;;;;;;;0.50;0.35;;;;;;;;;;5049050;28;20491;-67
2022/05/04 00:36:35;;;;;;;0.30;0.20;;;;;;;;;;5094752;28;20400;-69
2022/05/04 00:39:06;;;;;;;0.52;0.43;;;;;;;;;;5076685;28;20063;-68
2022/05/04 00:41:37;;;;;;;0.40;0.40;;;;;;;;;;5094366;28;20047;-67
2022/05/04 00:44:07;;;;;;;0.40;0.10;;;;;;;;;;5094339;28;20427;-65
2022/05/04 00:46:38;;;;;;;0.68;0.40;;;;;;;;;;5058078;28;20044;-65
2022/05/04 00:49:09;;;;;;;0.63;0.47;;;;;;;;;;5058699;28;20507;-65
2022/05/04 00:51:39;;;;;;;1.15;1.05;;;;;;;;;;5058861;28;20059;-65
2022/05/04 00:54:10;;;;;;;0.50;0.50;;;;;;;;;;5075093;28;20483;-65
2022/05/04 00:56:41;;;;;;;0.93;0.43;;;;;;;;;;5094518;28;20040;-69
2022/05/04 00:59:12;;;;;;;0.60;0.60;;;;;;;;;;5093924;28;20048;-67
2022/05/04 01:01:43;;;;;;;0.50;0.50;;;;;;;;;;5076525;28;20044;-67
2022/05/04 01:04:14;;;;;;;0.32;0.32;;;;;;;;;;5093952;28;20512;-66
2022/05/04 01:06:48;;;;;;;0.70;0.38;;;;;;;;;;5093978;28;20047;-65
2022/05/04 01:09:20;;;;;;;2.17;0.40;;;;;;;;;;5093737;28;20036;-65
2022/05/04 01:11:50;;;;;;;1.73;0.32;;;;;;;;;;5093722;28;20048;-64
2022/05/04 01:14:21;;;;;;;2.05;0.50;;;;;;;;;;5031066;28;20049;-63
2022/05/04 01:16:53;;;;;;;0.52;0.52;;;;;;;;;;5031324;28;20057;-63
2022/05/04 01:19:23;;;;;;;0.75;0.40;;;;;;;;;;5031181;28;20049;-63
2022/05/04 01:21:54;;;;;;;0.82;0.40;;;;;;;;;;5031278;28;20042;-63
2022/05/04 01:24:24;;;;;;;0.90;0.90;;;;;;;;;;5031005;28;20509;-63
2022/05/04 01:26:55;;;;;;;0.40;0.40;;;;;;;;;;5031104;28;20064;-63
2022/05/04 01:29:26;;;;;;;0.88;0.88;;;;;;;;;;4982099;28;20079;-63
2022/05/04 01:31:56;;;;;;;0.65;0.40;;;;;;;;;;4998049;28;20068;-63
2022/05/04 01:34:28;;;;;;;0.45;0.45;;;;;;;;;;5031053;28;20543;-64
2022/05/04 01:36:59;;;;;;;0.35;0.28;;;;;;;;;;5014752;28;20493;-64
2022/05/04 01:39:29;;;;;;;0.90;0.40;;;;;;;;;;5030882;28;20112;-64
2022/05/04 01:42:03;;;;;;;0.10;0.10;;;;;;;;;;5030951;28;20437;-64
2022/05/04 01:44:34;;;;;;;0.68;0.47;;;;;;;;;;5030646;28;20057;-65
2022/05/04 01:47:04;;;;;;;0.43;0.30;;;;;;;;;;5030583;28;20046;-64
2022/05/04 01:49:37;;;;;;;0.35;0.35;;;;;;;;;;5030588;28;20049;-65
2022/05/04 01:52:07;;;;;;;1.02;0.40;;;;;;;;;;5066202;28;20056;-66
2022/05/04 01:54:38;;;;;;;0.82;0.30;;;;;;;;;;5050427;28;20061;-68
2022/05/04 01:57:09;;;;;;;0.55;0.50;;;;;;;;;;5050401;28;20064;-67
2022/05/04 01:59:40;;;;;;;0.60;0.30;;;;;;;;;;5032522;28;20059;-66
2022/05/04 02:02:11;;;;;;;0.75;0.63;;;;;;;;;;5001039;28;20041;-66
2022/05/04 02:04:42;;;;;;;0.45;0.45;;;;;;;;;;5001098;28;20072;-65
2022/05/04 02:07:13;;;;;;;0.63;0.43;;;;;;;;;;5000809;28;20079;-64
2022/05/04 02:10:04;;;;;;;0.95;0.10;;;;;;;;;;5021887;28;20081;-64
2022/05/04 02:12:36;;;;;;;0.38;0.30;;;;;;;;;;5017847;28;20053;-64
2022/05/04 02:15:09;;;;;;;0.30;0.30;;;;;;;;;;5050167;28;20044;-64
2022/05/04 02:17:41;;;;;;;0.40;0.35;;;;;;;;;;5050159;28;20063;-64
2022/05/04 02:20:14;;;;;;;0.32;0.32;;;;;;;;;;5045897;28;20080;-63
2022/05/04 02:22:49;;;;;;;0.47;0.47;;;;;;;;;;5016796;28;20053;-63
2022/05/04 02:25:20;;;;;;;0.50;0.50;;;;;;;;;;5049786;28;20427;-63
2022/05/04 02:27:53;;;;;;;1.10;0.50;;;;;;;;;;5050012;28;20107;-63
2022/05/04 02:30:24;;;;;;;1.02;0.95;;;;;;;;;;5013656;28;20508;-63
2022/05/04 02:33:16;;;;;;;0.40;0.40;;;;;;;;;;5008649;28;20049;-63
2022/05/04 02:38:42;;;;;;;0.40;0.40;;;;;;;;;;5009952;28;20062;-63
2022/05/04 02:41:14;;;;;;;0.43;0.40;;;;;;;;;;5010148;28;20058;-63
2022/05/04 02:43:45;;;;;;;0.40;0.40;;;;;;;;;;5009860;28;20049;-63
2022/05/04 02:46:18;;;;;;;0.35;0.35;;;;;;;;;;5010027;28;20057;-63
2022/05/04 02:48:50;;;;;;;0.70;0.30;;;;;;;;;;4970412;28;20490;-63
2022/05/04 02:51:21;;;;;;;0.40;0.40;;;;;;;;;;4954426;28;20066;-63
2022/05/04 02:53:52;;;;;;;0.40;0.40;;;;;;;;;;4970496;28;20168;-63
2022/05/04 02:56:23;;;;;;;0.30;0.30;;;;;;;;;;4938617;28;20513;-63
2022/05/04 02:58:55;;;;;;;1.08;0.35;;;;;;;;;;4970538;28;20050;-62
2022/05/04 03:04:15;;;;;;;0.52;0.52;;;;;;;;;;4970486;28;20055;-63
2022/05/04 03:06:47;;;;;;;0.52;0.45;;;;;;;;;;4954817;28;20055;-63
2022/05/04 03:09:18;;;;;;;0.20;0.20;;;;;;;;;;4970296;28;20066;-63
2022/05/04 03:11:57;;;;;;;0.45;0.40;;;;;;;;;;4968113;28;20514;-63
2022/05/04 03:14:29;;;;;;;0.60;0.50;;;;;;;;;;4988975;28;20058;-63
2022/05/04 03:16:59;;;;;;;0.47;0.40;;;;;;;;;;5009748;28;20054;-63
2022/05/04 03:19:30;;;;;;;0.40;0.40;;;;;;;;;;5015836;28;20068;-63
2022/05/04 03:22:01;;;;;;;0.43;0.40;;;;;;;;;;5012801;28;20064;-63
2022/05/04 03:24:32;;;;;;;0.10;0.10;;;;;;;;;;5029272;28;20509;-64
2022/05/04 03:27:03;;;;;;;0.98;0.38;;;;;;;;;;5075203;28;20503;-64
2022/05/04 03:29:35;;;;;;;0.30;0.10;;;;;;;;;;5056968;28;20403;-64
2022/05/04 03:32:06;;;;;;;0.32;0.32;;;;;;;;;;5056467;28;20052;-64
2022/05/04 03:34:37;;;;;;;0.50;0.50;;;;;;;;;;5091619;28;20499;-63
2022/05/04 03:37:08;;;;;;;0.40;0.40;;;;;;;;;;5091688;28;20067;-63
2022/05/04 03:39:38;;;;;;;0.75;0.13;;;;;;;;;;5091386;28;20048;-63
2022/05/04 03:42:12;;;;;;;0.40;0.40;;;;;;;;;;5056946;28;20055;-63
2022/05/04 03:44:42;;;;;;;0.57;0.35;;;;;;;;;;5091444;28;20043;-63
2022/05/04 03:47:13;;;;;;;1.30;0.32;;;;;;;;;;5055926;28;20059;-63
2022/05/04 03:49:43;;;;;;;0.38;0.38;;;;;;;;;;5073118;28;20048;-63
2022/05/04 03:52:14;;;;;;;0.30;0.30;;;;;;;;;;5074076;28;20036;-63
2022/05/04 03:54:45;;;;;;;1.55;0.28;;;;;;;;;;5091402;28;20043;-63
2022/05/04 03:57:16;;;;;;;0.22;0.10;;;;;;;;;;5039367;28;20419;-63
2022/05/04 03:59:46;;;;;;;0.30;0.30;;;;;;;;;;5091613;28;20056;-63
2022/05/04 04:02:17;;;;;;;0.30;0.30;;;;;;;;;;5072427;28;20052;-63
2022/05/04 04:04:48;;;;;;;0.40;0.30;;;;;;;;;;5091528;28;20040;-63
2022/05/04 04:07:19;;;;;;;0.30;0.30;;;;;;;;;;5091620;28;20047;-64
2022/05/04 04:09:49;;;;;;;0.77;0.20;;;;;;;;;;5091275;28;20044;-63
2022/05/04 04:12:21;;;;;;;0.75;0.30;;;;;;;;;;5039653;28;20052;-63
2022/05/04 04:14:51;;;;;;;2.13;0.32;;;;;;;;;;5039087;28;20060;-64
2022/05/04 04:17:22;;;;;;;0.63;0.63;;;;;;;;;;5091246;28;20055;-63
2022/05/04 04:22:41;;;;;;;0.57;0.00;;;;;;;;;;5093457;28;20407;-63
2022/05/04 04:25:12;;;;;;;9.75;0.60;;;;;;;;;;5051897;28;20436;-63
2022/05/04 04:27:42;;;;;;;0.50;0.30;;;;;;;;;;5052189;28;20056;-63
2022/05/04 04:30:13;;;;;;;0.55;0.40;;;;;;;;;;5002635;28;20049;-62
2022/05/04 04:32:44;;;;;;;0.40;0.40;;;;;;;;;;5052137;28;20037;-63
2022/05/04 04:35:15;;;;;;;0.43;0.38;;;;;;;;;;5052004;28;20045;-63
2022/05/04 04:37:45;;;;;;;0.40;0.40;;;;;;;;;;5035248;28;20056;-63
2022/05/04 04:40:16;;;;;;;0.30;0.30;;;;;;;;;;5031594;28;20045;-63
2022/05/04 04:42:46;;;;;;;0.30;0.30;;;;;;;;;;4982968;28;20061;-63
2022/05/04 04:45:17;;;;;;;0.22;0.22;;;;;;;;;;4992370;28;20610;-63
2022/05/04 04:47:48;;;;;;;0.57;0.30;;;;;;;;;;4992337;28;20058;-63
2022/05/04 04:50:19;;;;;;;0.32;0.32;;;;;;;;;;4975964;28;20069;-63
2022/05/04 04:52:50;;;;;;;0.40;0.30;;;;;;;;;;4992338;28;20055;-62
2022/05/04 04:55:20;;;;;;;0.30;0.30;;;;;;;;;;4992259;28;20065;-63
2022/05/04 04:57:50;;;;;;;0.30;0.30;;;;;;;;;;4992254;28;20058;-63
2022/05/04 05:00:22;;;;;;;0.85;0.82;;;;;;;;;;4991876;28;20054;-63
2022/05/04 05:02:52;;;;;;;1.60;0.32;;;;;;;;;;4992105;28;20058;-63
2022/05/04 05:05:23;;;;;;;0.20;0.20;;;;;;;;;;4975904;28;20069;-63
2022/05/04 05:07:53;;;;;;;0.25;0.25;;;;;;;;;;4992228;28;20160;-63
2022/05/04 05:10:24;;;;;;;0.05;0.00;;;;;;;;;;4991919;28;20435;-63
2022/05/04 05:12:55;;;;;;;0.38;0.38;;;;;;;;;;4991932;28;20054;-63
2022/05/04 05:18:14;;;;;;;0.52;0.52;;;;;;;;;;5017059;28;20045;-63
2022/05/04 05:20:45;;;;;;;0.40;0.40;;;;;;;;;;4998334;28;20072;-63
2022/05/04 05:23:20;;;;;;;2.95;0.60;;;;;;;;;;5005234;28;20054;-62
2022/05/04 05:25:51;;;;;;;0.00;0.00;;;;;;;;;;5011340;28;20543;-64
2022/05/04 05:28:21;;;;;;;0.38;0.38;;;;;;;;;;5011349;28;20058;-63
2022/05/04 05:30:52;;;;;;;0.47;0.47;;;;;;;;;;5011248;28;20050;-63
2022/05/04 05:33:23;;;;;;;0.30;0.30;;;;;;;;;;5011202;28;20042;-65
2022/05/04 05:35:53;;;;;;;0.40;0.40;;;;;;;;;;4994709;28;20053;-66
2022/05/04 05:38:27;;;;;;;0.20;0.20;;;;;;;;;;5037927;28;20053;-66
2022/05/04 05:40:59;;;;;;;0.30;0.30;;;;;;;;;;5034531;28;20053;-68
2022/05/04 05:43:30;;;;;;;0.30;0.30;;;;;;;;;;5017728;28;20056;-66
2022/05/04 05:46:01;;;;;;;1.15;0.43;;;;;;;;;;5017641;28;20049;-66
2022/05/04 05:48:31;;;;;;;0.40;0.40;;;;;;;;;;5001640;28;20061;-66
2022/05/04 05:51:06;;;;;;;0.35;0.35;;;;;;;;;;5050570;28;20539;-68
2022/05/04 05:53:36;;;;;;;0.50;0.50;;;;;;;;;;5050481;28;20504;-67
2022/05/04 05:56:07;;;;;;;0.30;0.30;;;;;;;;;;5050473;28;20049;-66
2022/05/04 05:58:37;;;;;;;0.30;0.30;;;;;;;;;;5017208;28;20056;-66
2022/05/04 06:01:08;;;;;;;0.45;0.35;;;;;;;;;;5076987;28;20059;-65
2022/05/04 06:03:39;;;;;;;0.30;0.30;;;;;;;;;;5057306;28;20067;-65
2022/05/04 06:06:09;;;;;;;0.22;0.22;;;;;;;;;;5092934;28;20047;-65
2022/05/04 06:08:40;;;;;;;2.75;0.40;;;;;;;;;;5092854;28;20047;-66
2022/05/04 06:11:11;;;;;;;0.20;0.20;;;;;;;;;;5073619;28;20048;-65
2022/05/04 06:13:42;;;;;;;0.40;0.40;;;;;;;;;;5074327;28;20055;-65
2022/05/04 06:16:12;;;;;;;0.30;0.30;;;;;;;;;;5092578;28;20040;-65
2022/05/04 06:18:42;;;;;;;0.30;0.30;;;;;;;;;;5092643;28;20044;-64
2022/05/04 06:21:14;;;;;;;0.20;0.20;;;;;;;;;;5092406;28;20534;-64
2022/05/04 06:23:44;;;;;;;0.30;0.30;;;;;;;;;;5092616;28;20051;-64
2022/05/04 06:26:20;;;;;;;1.15;0.40;;;;;;;;;;5092340;28;20048;-64
2022/05/04 06:28:50;;;;;;;0.20;0.20;;;;;;;;;;5092480;28;20051;-64
2022/05/04 06:34:13;;;;;;;0.30;0.30;;;;;;;;;;5069766;28;20585;-63
2022/05/04 06:36:44;;;;;;;0.43;0.00;;;;;;;;;;5069677;28;20591;-63
2022/05/04 06:39:15;;;;;;;0.20;0.20;;;;;;;;;;5045686;28;20551;-63
2022/05/04 06:41:47;;;;;;;0.40;0.28;;;;;;;;;;5029878;28;20064;-63
2022/05/04 06:44:18;;;;;;;1.17;1.05;;;;;;;;;;4996355;28;20057;-63
2022/05/04 06:46:49;;;;;;;0.30;0.30;;;;;;;;;;5029687;28;20049;-63
2022/05/04 06:49:20;;;;;;;0.20;0.20;;;;;;;;;;4976851;28;20041;-63
2022/05/04 06:51:50;;;;;;;0.70;0.52;;;;;;;;;;5009789;28;20053;-62
2022/05/04 06:54:21;;;;;;;0.35;0.32;;;;;;;;;;5009822;28;20069;-62
2022/05/04 06:56:53;;;;;;;0.30;0.30;;;;;;;;;;5009634;28;20070;-62
2022/05/04 06:59:23;;;;;;;0.30;0.30;;;;;;;;;;4977024;28;20046;-62
2022/05/04 07:01:55;;;;;;;0.10;0.10;;;;;;;;;;5009564;28;20413;-62
2022/05/04 07:04:25;;;;;;;0.38;0.38;;;;;;;;;;5029222;28;20088;-62
2022/05/04 07:06:56;;;;;;;0.40;0.30;;;;;;;;;;5029432;28;20057;-62
2022/05/04 07:09:26;;;;;;;0.82;0.30;;;;;;;;;;5029320;28;20049;-62
2022/05/04 07:11:58;;;;;;;0.40;0.40;;;;;;;;;;5029164;28;20053;-62
2022/05/04 07:14:28;;;;;;;0.30;0.30;;;;;;;;;;4935490;28;20053;-63
2022/05/04 07:16:59;;;;;;;0.30;0.30;;;;;;;;;;5013286;28;20053;-62
2022/05/04 07:19:29;;;;;;;0.47;0.10;;;;;;;;;;4996363;28;20378;-62
2022/05/04 07:22:00;;;;;;;0.40;0.40;;;;;;;;;;4989594;28;20046;-62
2022/05/04 07:24:31;;;;;;;1.98;0.10;;;;;;;;;;4973653;28;20406;-62
2022/05/04 07:27:02;;;;;;;0.50;0.43;;;;;;;;;;4977693;28;20049;-63
2022/05/04 07:29:34;;;;;;;0.38;0.32;;;;;;;;;;4996523;28;20053;-62
2022/05/04 07:32:05;;;;;;;0.73;0.30;;;;;;;;;;5029083;28;20041;-63
2022/05/04 07:34:37;;;;;;;0.30;0.30;;;;;;;;;;5029097;28;20578;-62
2022/05/04 07:37:08;;;;;;;0.50;0.43;;;;;;;;;;4973104;28;20066;-63
2022/05/04 07:42:28;;;;;;;1.48;0.38;;;;;;;;;;4970248;28;20061;-63
2022/05/04 07:45:05;;;;;;;0.80;0.45;;;;;;;;;;4976709;28;20053;-62
2022/05/04 07:47:36;;;;;;;0.63;0.30;;;;;;;;;;4993337;28;20058;-62
2022/05/04 07:50:09;;;;;;;0.40;0.30;;;;;;;;;;4992805;28;20581;-62
2022/05/04 07:52:41;;;;;;;0.38;0.22;;;;;;;;;;4945786;28;20061;-62
2022/05/04 07:55:12;;;;;;;0.85;0.30;;;;;;;;;;4989299;28;20047;-63
2022/05/04 07:57:47;;;;;;;0.30;0.30;;;;;;;;;;4975734;28;20058;-63
2022/05/04 08:05:58;;;;;;;0.93;0.93;;;;;;;;;;4973869;28;20062;-62
2022/05/04 08:08:29;;;;;;;0.35;0.35;;;;;;;;;;4989558;28;20051;-62
2022/05/04 08:11:03;;;;;;;0.88;0.30;;;;;;;;;;4973836;28;20491;-62
2022/05/04 08:13:34;;;;;;;0.30;0.30;;;;;;;;;;4954109;28;20553;-63
2022/05/04 08:16:07;;;;;;;0.30;0.30;;;;;;;;;;4958042;28;20055;-63
2022/05/04 08:18:40;;;;;;;0.52;0.40;;;;;;;;;;4973520;28;20066;-63
2022/05/04 08:21:11;;;;;;;0.60;0.30;;;;;;;;;;4974215;28;20058;-63
2022/05/04 08:23:42;;;;;;;0.40;0.40;;;;;;;;;;4957618;28;20062;-63
2022/05/04 08:26:13;;;;;;;0.32;0.30;;;;;;;;;;4925919;28;20047;-63
2022/05/04 08:28:43;;;;;;;1.27;0.50;;;;;;;;;;4973439;28;20051;-63
2022/05/04 08:31:14;;;;;;;1.90;0.40;;;;;;;;;;4973322;28;20067;-63
2022/05/04 08:33:46;;;;;;;0.52;0.35;;;;;;;;;;4990149;28;20062;-63
2022/05/04 08:36:17;;;;;;;1.00;0.30;;;;;;;;;;4992719;28;20050;-62
2022/05/04 08:38:47;;;;;;;0.30;0.30;;;;;;;;;;4992265;28;20053;-63
2022/05/04 08:41:18;;;;;;;0.40;0.22;;;;;;;;;;5031909;28;20197;-62
2022/05/04 08:43:52;;;;;;;0.57;0.57;;;;;;;;;;5031511;28;20061;-63
2022/05/04 08:46:25;;;;;;;0.40;0.30;;;;;;;;;;5031923;28;20046;-63
2022/05/04 08:48:57;;;;;;;0.38;0.38;;;;;;;;;;5031790;28;20497;-62
2022/05/04 08:51:28;;;;;;;0.40;0.35;;;;;;;;;;5056965;28;20064;-63
2022/05/04 08:53:59;;;;;;;0.40;0.40;;;;;;;;;;5054829;28;20052;-63
2022/05/04 08:56:31;;;;;;;0.30;0.30;;;;;;;;;;5039373;28;20092;-63
2022/05/04 08:59:03;;;;;;;1.50;1.42;;;;;;;;;;5021897;28;20048;-63
2022/05/04 09:01:42;;;;;;;1.33;1.23;;;;;;;;;;5022436;28;20060;-62
2022/05/04 09:04:13;;;;;;;0.50;0.50;;;;;;;;;;5055228;28;20052;-63
2022/05/04 09:06:45;;;;;;;0.10;0.00;;;;;;;;;;5071437;28;20432;-63
2022/05/04 09:09:17;;;;;;;0.90;0.40;;;;;;;;;;5071055;28;20053;-63
2022/05/04 09:11:47;;;;;;;0.10;0.10;;;;;;;;;;5071455;28;20407;-63
2022/05/04 09:14:26;;;;;;;0.40;0.40;;;;;;;;;;5030881;28;20053;-63
2022/05/04 09:16:56;;;;;;;0.35;0.30;;;;;;;;;;4991656;28;20054;-63
2022/05/04 09:19:27;;;;;;;0.35;0.30;;;;;;;;;;4960038;28;20069;-63
2022/05/04 09:21:58;;;;;;;0.30;0.30;;;;;;;;;;5005812;28;20061;-63
2022/05/04 09:24:30;;;;;;;0.30;0.30;;;;;;;;;;4972071;28;20042;-63
2022/05/04 09:27:01;;;;;;;0.40;0.40;;;;;;;;;;4972053;28;20065;-63
2022/05/04 09:29:36;;;;;;;1.02;0.40;;;;;;;;;;4924008;28;20074;-63
2022/05/04 09:32:14;;;;;;;0.75;0.47;;;;;;;;;;4941534;28;20073;-63
2022/05/04 09:34:55;;;;;;;1.02;0.73;;;;;;;;;;4972070;28;20046;-63
2022/05/04 09:45:57;;;;;;;0.20;0.20;;;;;;;;;;4971919;28;20050;-63
2022/05/04 09:48:37;;;;;;;0.40;0.20;;;;;;;;;;4971831;28;20427;-63
2022/05/04 09:51:09;;;;;;;0.30;0.30;;;;;;;;;;4958965;28;20430;-64
2022/05/04 09:53:40;;;;;;;0.43;0.43;;;;;;;;;;4995958;28;20057;-63
2022/05/04 09:56:10;;;;;;;2.75;0.47;;;;;;;;;;5030443;28;20053;-63
2022/05/04 09:58:41;;;;;;;0.63;0.32;;;;;;;;;;4997398;28;20050;-63
2022/05/04 10:01:12;;;;;;;0.47;0.47;;;;;;;;;;5003069;28;20050;-64
2022/05/04 10:03:44;;;;;;;0.40;0.40;;;;;;;;;;5072860;28;20044;-64
2022/05/04 10:06:15;;;;;;;0.20;0.10;;;;;;;;;;5092824;28;20391;-63
2022/05/04 10:08:46;;;;;;;0.40;0.40;;;;;;;;;;5041048;28;20063;-63
2022/05/04 10:11:16;;;;;;;0.35;0.35;;;;;;;;;;5073701;28;20048;-64
2022/05/04 10:13:52;;;;;;;0.10;0.10;;;;;;;;;;5075369;28;20403;-63
2022/05/04 10:16:24;;;;;;;0.63;0.30;;;;;;;;;;5092762;28;20043;-64
2022/05/04 10:18:57;;;;;;;0.30;0.30;;;;;;;;;;5092127;28;20047;-64
2022/05/04 10:21:28;;;;;;;0.20;0.20;;;;;;;;;;5069549;28;20499;-64
2022/05/04 10:24:03;;;;;;;0.40;0.40;;;;;;;;;;5069911;28;20067;-64
2022/05/04 10:26:36;;;;;;;0.35;0.30;;;;;;;;;;5053336;28;20075;-64
2022/05/04 10:32:43;;;;;;;0.50;0.40;;;;;;;;;;5069882;28;20060;-64
2022/05/04 10:35:20;;;;;;;0.50;0.50;;;;;;;;;;5020185;28;20052;-64
2022/05/04 10:37:57;;;;;;;0.40;0.40;;;;;;;;;;5053629;28;20045;-64
2022/05/04 10:40:32;;;;;;;0.35;0.30;;;;;;;;;;5069569;28;20056;-63
2022/05/04 10:43:04;;;;;;;0.20;0.10;;;;;;;;;;5019651;28;20424;-63
2022/05/04 10:45:37;;;;;;;0.75;0.40;;;;;;;;;;5036187;28;20064;-63
2022/05/04 10:48:21;;;;;;;0.40;0.30;;;;;;;;;;5037753;28;20060;-63
2022/05/04 10:51:10;;;;;;;0.28;0.28;;;;;;;;;;5053268;28;20052;-63
2022/05/04 10:53:43;;;;;;;1.48;1.38;;;;;;;;;;5049058;28;20045;-64
2022/05/04 10:56:17;;;;;;;0.30;0.30;;;;;;;;;;5049460;28;20049;-64
2022/05/04 10:58:52;;;;;;;0.73;0.60;;;;;;;;;;5056588;28;20048;-64
2022/05/04 11:01:34;;;;;;;0.93;0.82;;;;;;;;;;5036712;28;20052;-63
2022/05/04 11:04:09;;;;;;;1.30;0.10;;;;;;;;;;5069389;28;20560;-63
2022/05/04 11:06:44;;;;;;;1.20;0.60;;;;;;;;;;5069489;28;20056;-64
2022/05/04 11:09:20;;;;;;;1.42;0.95;;;;;;;;;;5035811;28;20048;-63
2022/05/04 11:11:55;;;;;;;0.38;0.38;;;;;;;;;;5053637;28;20044;-63
2022/05/04 11:14:27;;;;;;;0.65;0.45;;;;;;;;;;5069450;28;20044;-63
2022/05/04 11:16:58;;;;;;;0.45;0.40;;;;;;;;;;5069298;28;20052;-64
2022/05/04 11:19:34;;;;;;;0.60;0.40;;;;;;;;;;5069384;28;20060;-63
2022/05/04 11:22:08;;;;;;;0.45;0.40;;;;;;;;;;5069051;28;20056;-64
2022/05/04 11:25:00;;;;;;;1.70;1.60;;;;;;;;;;5069335;28;20524;-63
2022/05/04 11:27:31;;;;;;;0.63;0.55;;;;;;;;;;5052875;28;20049;-64
2022/05/04 11:30:06;;;;;;;1.00;0.50;;;;;;;;;;5035744;28;20481;-64
2022/05/04 11:32:41;;;;;;;0.65;0.50;;;;;;;;;;5077192;28;20048;-64
2022/05/04 11:35:15;;;;;;;1.73;0.60;;;;;;;;;;5060933;28;20060;-64
2022/05/04 11:37:45;;;;;;;0.98;0.60;;;;;;;;;;5095674;28;20055;-64
2022/05/04 11:40:17;;;;;;;2.95;0.70;;;;;;;;;;5095644;28;20558;-64
2022/05/04 11:42:48;;;;;;;0.93;0.60;;;;;;;;;;5095550;28;20051;-64
2022/05/04 11:45:20;;;;;;;0.95;0.65;;;;;;;;;;5095639;28;20044;-64
2022/05/04 11:47:51;;;;;;;0.60;0.60;;;;;;;;;;5060599;28;20052;-64
2022/05/04 11:50:23;;;;;;;0.75;0.57;;;;;;;;;;5044546;28;20055;-65
2022/05/04 11:52:54;;;;;;;0.45;0.40;;;;;;;;;;5077761;28;20036;-64
2022/05/04 11:55:25;;;;;;;0.30;0.20;;;;;;;;;;5072387;28;20393;-64
2022/05/04 11:57:59;;;;;;;1.02;0.40;;;;;;;;;;5072656;28;20057;-64
2022/05/04 12:00:30;;;;;;;0.20;0.20;;;;;;;;;;5072547;28;20053;-64
2022/05/04 12:03:01;;;;;;;0.85;0.70;;;;;;;;;;5072622;28;20055;-64
2022/05/04 12:05:33;;;;;;;0.40;0.40;;;;;;;;;;5056493;28;20076;-64
2022/05/04 12:08:06;;;;;;;1.02;0.50;;;;;;;;;;5034627;28;20041;-64
2022/05/04 12:10:38;;;;;;;0.73;0.60;;;;;;;;;;5003200;28;20520;-64
2022/05/04 12:13:08;;;;;;;0.73;0.40;;;;;;;;;;5032074;28;20060;-64
2022/05/04 12:15:39;;;;;;;0.60;0.40;;;;;;;;;;5032154;28;20049;-64
2022/05/04 12:18:13;;;;;;;0.50;0.50;;;;;;;;;;5032251;28;20058;-64
2022/05/04 12:20:46;;;;;;;0.30;0.30;;;;;;;;;;5032325;28;20052;-64
2022/05/04 12:23:18;;;;;;;1.05;1.05;;;;;;;;;;5031954;28;20060;-64
2022/05/04 12:25:49;;;;;;;0.17;0.10;;;;;;;;;;5032259;28;20386;-64
2022/05/04 12:28:19;;;;;;;0.63;0.52;;;;;;;;;;5032152;28;20068;-64
2022/05/04 12:33:41;;;;;;;0.88;0.40;;;;;;;;;;5032203;28;20057;-64
2022/05/04 12:36:13;;;;;;;0.80;0.80;;;;;;;;;;4975904;28;20047;-64
2022/05/04 12:38:46;;;;;;;0.50;0.50;;;;;;;;;;4987027;28;20058;-64
2022/05/04 12:41:19;;;;;;;0.30;0.10;;;;;;;;;;4940943;28;20395;-64
2022/05/04 12:43:52;;;;;;;0.55;0.50;;;;;;;;;;4988319;28;20054;-64
2022/05/04 12:46:23;;;;;;;0.65;0.50;;;;;;;;;;4937538;28;20065;-64
2022/05/04 12:48:54;;;;;;;0.45;0.20;;;;;;;;;;4953688;28;20392;-64
2022/05/04 12:51:26;;;;;;;0.88;0.57;;;;;;;;;;4923695;29;20121;-64
2022/05/04 12:53:57;;;;;;;0.70;0.70;;;;;;;;;;4964256;28;20062;-64
2022/05/04 12:56:46;;;;;;;0.77;0.70;;;;;;;;;;4941593;28;20507;-64
2022/05/04 12:59:18;;;;;;;1.35;0.70;;;;;;;;;;4972818;28;20063;-64
2022/05/04 13:01:49;;;;;;;0.57;0.50;;;;;;;;;;4960966;28;20473;-64
2022/05/04 13:04:20;;;;;;;1.70;0.60;;;;;;;;;;4992077;28;20054;-64
2022/05/04 13:06:51;;;;;;;0.38;0.22;;;;;;;;;;4944055;28;20402;-64
2022/05/04 13:09:21;;;;;;;0.80;0.60;;;;;;;;;;4960836;28;20192;-64
2022/05/04 13:11:52;;;;;;;0.68;0.68;;;;;;;;;;4992041;28;20065;-64
2022/05/04 13:14:23;;;;;;;5.90;0.80;;;;;;;;;;5020452;28;20057;-64
2022/05/04 13:16:54;;;;;;;2.05;0.60;;;;;;;;;;5014930;28;20066;-64
2022/05/04 13:19:25;;;;;;;1.20;0.73;;;;;;;;;;4998824;28;20046;-64
2022/05/04 13:21:55;;;;;;;0.80;0.63;;;;;;;;;;5031227;28;20148;-64
2022/05/04 13:24:26;;;;;;;1.05;0.63;;;;;;;;;;5060415;28;20052;-64
2022/05/04 13:26:57;;;;;;;1.27;0.85;;;;;;;;;;5073191;28;20392;-64
2022/05/04 13:29:27;;;;;;;0.70;0.70;;;;;;;;;;5073308;28;20036;-64
2022/05/04 13:32:00;;;;;;;2.00;1.20;;;;;;;;;;5073198;28;20059;-64
2022/05/04 13:34:31;;;;;;;1.90;0.85;;;;;;;;;;5014846;28;20052;-64
2022/05/04 13:37:02;;;;;;;1.00;0.77;;;;;;;;;;5030983;28;20056;-64
2022/05/04 13:39:33;;;;;;;0.95;0.75;;;;;;;;;;5030891;28;20060;-64
2022/05/04 13:42:06;;;;;;;1.17;0.80;;;;;;;;;;5014471;28;20057;-64
2022/05/04 13:44:37;;;;;;;0.95;0.80;;;;;;;;;;5010960;28;20058;-64
2022/05/04 13:47:11;;;;;;;1.15;0.80;;;;;;;;;;5010445;28;20049;-64
2022/05/04 13:49:41;;;;;;;1.52;0.95;;;;;;;;;;4971582;28;20059;-64
2022/05/04 13:55:02;;;;;;;0.85;0.65;;;;;;;;;;4952755;28;20055;-63
2022/05/04 13:57:33;;;;;;;1.67;1.58;;;;;;;;;;4952405;29;20554;-63
2022/05/04 14:00:04;;;;;;;1.65;0.80;;;;;;;;;;4964825;28;20054;-64
2022/05/04 14:02:39;;;;;;;1.42;0.80;;;;;;;;;;4971990;28;20061;-63
2022/05/04 14:05:10;;;;;;;1.10;0.77;;;;;;;;;;4952045;28;20106;-64
2022/05/04 14:07:42;;;;;;;1.88;0.80;;;;;;;;;;4952046;28;20059;-64
2022/05/04 14:10:13;;;;;;;1.15;0.60;;;;;;;;;;4936605;29;20047;-64
2022/05/04 14:12:45;;;;;;;1.20;0.50;;;;;;;;;;4949449;28;20421;-64
2022/05/04 14:15:15;;;;;;;0.90;0.70;;;;;;;;;;4990788;28;20062;-64
2022/05/04 14:17:46;;;;;;;1.48;0.80;;;;;;;;;;4990777;28;20054;-63
2022/05/04 14:20:17;;;;;;;2.13;0.70;;;;;;;;;;4990754;28;20429;-63
2022/05/04 14:22:49;;;;;;;1.08;0.75;;;;;;;;;;4942465;28;20058;-64
2022/05/04 14:25:20;;;;;;;1.00;0.80;;;;;;;;;;4994310;28;20505;-64
2022/05/04 14:27:53;;;;;;;1.20;0.75;;;;;;;;;;4966917;28;20160;-63
2022/05/04 14:30:26;;;;;;;1.52;0.73;;;;;;;;;;4981474;28;20060;-63
2022/05/04 14:32:57;;;;;;;1.27;0.82;;;;;;;;;;4980994;28;20054;-64
2022/05/04 14:35:28;;;;;;;0.98;0.75;;;;;;;;;;5029683;28;20045;-63
2022/05/04 14:37:59;;;;;;;0.80;0.80;;;;;;;;;;5029626;28;20564;-63
2022/05/04 14:40:31;;;;;;;1.38;0.80;;;;;;;;;;4997095;28;20049;-63
2022/05/04 14:43:02;;;;;;;1.50;0.77;;;;;;;;;;5009604;28;20405;-64
2022/05/04 14:45:33;;;;;;;1.20;1.10;;;;;;;;;;5034416;28;20060;-64
2022/05/04 14:48:04;;;;;;;0.98;0.77;;;;;;;;;;5049571;28;20053;-63
2022/05/04 14:50:37;;;;;;;1.55;0.88;;;;;;;;;;5049356;28;20056;-63
2022/05/04 14:53:08;;;;;;;1.83;1.20;;;;;;;;;;5049514;28;20050;-63
2022/05/04 14:55:38;;;;;;;0.77;0.70;;;;;;;;;;5033332;28;20049;-63
2022/05/04 14:58:09;;;;;;;1.33;0.80;;;;;;;;;;5049368;28;20068;-63
2022/05/04 15:00:39;;;;;;;1.10;0.90;;;;;;;;;;5016379;28;20049;-63
2022/05/04 15:06:06;;;;;;;1.10;0.80;;;;;;;;;;5048934;28;20096;-63
2022/05/04 15:08:37;;;;;;;1.77;0.90;;;;;;;;;;5000270;28;20051;-64
2022/05/04 15:11:07;;;;;;;1.30;0.95;;;;;;;;;;5049100;28;20049;-63
2022/05/04 15:13:38;;;;;;;1.30;0.90;;;;;;;;;;5049412;28;20611;-63
2022/05/04 15:16:09;;;;;;;1.42;0.80;;;;;;;;;;4976585;28;20049;-63
2022/05/04 15:18:40;;;;;;;0.80;0.52;;;;;;;;;;4961974;28;20438;-63
2022/05/04 15:21:10;;;;;;;2.10;0.98;;;;;;;;;;4960708;28;20073;-63
2022/05/04 15:23:41;;;;;;;1.58;0.93;;;;;;;;;;5013724;28;20050;-63
2022/05/04 15:26:12;;;;;;;1.42;1.00;;;;;;;;;;5009518;28;20058;-63
2022/05/04 15:28:43;;;;;;;1.13;0.85;;;;;;;;;;4989695;28;20051;-64
2022/05/04 15:31:14;;;;;;;1.10;0.63;;;;;;;;;;4989812;28;20066;-63
2022/05/04 15:33:45;;;;;;;1.70;0.80;;;;;;;;;;4989881;28;20054;-63
2022/05/04 15:36:15;;;;;;;1.65;0.80;;;;;;;;;;4989582;28;20046;-63
2022/05/04 15:38:46;;;;;;;2.22;0.93;;;;;;;;;;4989964;28;20049;-63
2022/05/04 15:41:17;;;;;;;1.00;0.80;;;;;;;;;;4953640;28;20102;-63
2022/05/04 15:43:48;;;;;;;1.65;1.00;;;;;;;;;;4970284;28;20055;-63
2022/05/04 15:46:18;;;;;;;2.03;0.90;;;;;;;;;;4970174;28;20047;-63
2022/05/04 15:48:50;;;;;;;1.85;0.57;;;;;;;;;;4970372;28;20419;-63
2022/05/04 15:51:24;;;;;;;1.58;1.00;;;;;;;;;;4954838;28;20514;-63
2022/05/04 15:53:56;;;;;;;1.58;0.77;;;;;;;;;;4970253;28;20082;-63